sensor_id;sensor_type;location;lat;lon;timestamp;pressure;altitude;pressure_sealevel;temperature;humidity
5814;BME280;2933;52.302;8.134;2023-03-24T00:00:18;99014.06;;;9.97;100.00
5814;BME280;2933;52.302;8.134;2023-03-24T00:05:21;99007.31;;;9.94;100.00
5814;BME280;2933;52.302;8.134;2023-03-24T00:10:24;99006.38;;;9.95;100.00
5814;BME280;2933;52.302;8.134;2023-03-24T00:15:29;98998.09;;;9.90;100.00
5814;BME280;2933;52.302;8.134;2023-03-24T00:20:31;98983.25;;;9.91;100.00
5814;BME280;2933;52.302;8.134;2023-03-24T00:25:34;98988.97;;;9.96;100.00
5814;BME280;2933;52.302;8.134;2023-03-24T00:30:36;98972.84;;;9.91;100.00
5814;BME280;2933;52.302;8.134;2023-03-24T00:35:38;98957.19;;;9.91;100.00
5814;BME280;2933;52.302;8.134;2023-03-24T00:40:45;98954.34;;;9.94;100.00
5814;BME280;2933;52.302;8.134;2023-03-24T00:45:47;98948.28;;;9.93;100.00
5814;BME280;2933;52.302;8.134;2023-03-24T00:50:51;98936.22;;;9.92;100.00
5814;BME280;2933;52.302;8.134;2023-03-24T00:55:55;98935.00;;;9.96;100.00
5814;BME280;2933;52.302;8.134;2023-03-24T01:00:56;98923.75;;;9.96;100.00
5814;BME280;2933;52.302;8.134;2023-03-24T01:06:00;98916.28;;;9.91;100.00
5814;BME280;2933;52.302;8.134;2023-03-24T01:11:04;98905.59;;;9.94;100.00
5814;BME280;2933;52.302;8.134;2023-03-24T01:16:07;98905.34;;;9.97;100.00
5814;BME280;2933;52.302;8.134;2023-03-24T01:21:10;98896.81;;;9.95;100.00
5814;BME280;2933;52.302;8.134;2023-03-24T01:26:13;98890.66;;;9.96;100.00
5814;BME280;2933;52.302;8.134;2023-03-24T01:31:14;98882.69;;;9.98;100.00
5814;BME280;2933;52.302;8.134;2023-03-24T01:36:16;98876.50;;;9.99;100.00
5814;BME280;2933;52.302;8.134;2023-03-24T01:41:19;98879.31;;;10.07;100.00
5814;BME280;2933;52.302;8.134;2023-03-24T01:46:21;98859.38;;;10.06;100.00
5814;BME280;2933;52.302;8.134;2023-03-24T01:51:25;98859.69;;;10.13;100.00
5814;BME280;2933;52.302;8.134;2023-03-24T01:56:32;98845.69;;;10.14;100.00
5814;BME280;2933;52.302;8.134;2023-03-24T02:01:35;98821.81;;;10.18;100.00
5814;BME280;2933;52.302;8.134;2023-03-24T02:06:38;98805.97;;;10.10;100.00
5814;BME280;2933;52.302;8.134;2023-03-24T02:11:44;98807.94;;;10.18;100.00
5814;BME280;2933;52.302;8.134;2023-03-24T02:17:06;98789.53;;;10.19;100.00
5814;BME280;2933;52.302;8.134;2023-03-24T02:22:35;98789.41;;;10.21;100.00
5814;BME280;2933;52.302;8.134;2023-03-24T02:28:10;98792.44;;;10.26;100.00
5814;BME280;2933;52.302;8.134;2023-03-24T02:33:34;98780.91;;;10.29;100.00
5814;BME280;2933;52.302;8.134;2023-03-24T02:44:19;98755.09;;;10.35;100.00
5814;BME280;2933;52.302;8.134;2023-03-24T02:49:26;98741.41;;;10.43;100.00
5814;BME280;2933;52.302;8.134;2023-03-24T02:54:38;98745.69;;;10.44;100.00
5814;BME280;2933;52.302;8.134;2023-03-24T02:59:48;98739.63;;;10.44;100.00
5814;BME280;2933;52.302;8.134;2023-03-24T03:04:53;98732.91;;;10.51;100.00
5814;BME280;2933;52.302;8.134;2023-03-24T03:09:59;98722.31;;;10.53;100.00
5814;BME280;2933;52.302;8.134;2023-03-24T03:15:06;98712.41;;;10.56;100.00
5814;BME280;2933;52.302;8.134;2023-03-24T03:20:13;98706.38;;;10.56;100.00
5814;BME280;2933;52.302;8.134;2023-03-24T03:25:20;98700.88;;;10.59;100.00
5814;BME280;2933;52.302;8.134;2023-03-24T03:30:27;98690.56;;;10.57;100.00
5814;BME280;2933;52.302;8.134;2023-03-24T03:35:36;98684.53;;;10.57;100.00
5814;BME280;2933;52.302;8.134;2023-03-24T03:40:41;98676.16;;;10.53;100.00
5814;BME280;2933;52.302;8.134;2023-03-24T03:45:51;98676.00;;;10.45;100.00
5814;BME280;2933;52.302;8.134;2023-03-24T03:50:52;98668.31;;;10.43;100.00
5814;BME280;2933;52.302;8.134;2023-03-24T03:55:54;98663.75;;;10.45;100.00
5814;BME280;2933;52.302;8.134;2023-03-24T04:00:58;98654.72;;;10.40;100.00
5814;BME280;2933;52.302;8.134;2023-03-24T04:06:02;98655.38;;;10.42;100.00
5814;BME280;2933;52.302;8.134;2023-03-24T04:16:42;98663.34;;;10.40;100.00
5814;BME280;2933;52.302;8.134;2023-03-24T04:21:58;98670.09;;;10.43;100.00
5814;BME280;2933;52.302;8.134;2023-03-24T04:27:10;98658.97;;;10.41;100.00
5814;BME280;2933;52.302;8.134;2023-03-24T04:32:20;98662.53;;;10.40;100.00
5814;BME280;2933;52.302;8.134;2023-03-24T04:37:28;98643.31;;;10.41;100.00
5814;BME280;2933;52.302;8.134;2023-03-24T04:42:34;98657.88;;;10.43;100.00
5814;BME280;2933;52.302;8.134;2023-03-24T04:47:41;98637.66;;;10.45;100.00
5814;BME280;2933;52.302;8.134;2023-03-24T04:52:43;98651.81;;;10.43;100.00
5814;BME280;2933;52.302;8.134;2023-03-24T04:57:45;98657.03;;;10.43;100.00
5814;BME280;2933;52.302;8.134;2023-03-24T05:02:48;98643.97;;;10.43;100.00
5814;BME280;2933;52.302;8.134;2023-03-24T05:07:51;98641.91;;;10.46;100.00
5814;BME280;2933;52.302;8.134;2023-03-24T05:12:53;98643.44;;;10.49;100.00
5814;BME280;2933;52.302;8.134;2023-03-24T05:17:56;98660.34;;;10.55;100.00
5814;BME280;2933;52.302;8.134;2023-03-24T05:22:58;98664.88;;;10.53;100.00
5814;BME280;2933;52.302;8.134;2023-03-24T05:28:00;98676.28;;;10.51;100.00
5814;BME280;2933;52.302;8.134;2023-03-24T05:33:03;98712.16;;;10.49;100.00
5814;BME280;2933;52.302;8.134;2023-03-24T05:38:05;98716.41;;;9.90;100.00
5814;BME280;2933;52.302;8.134;2023-03-24T05:43:07;98744.63;;;9.75;100.00
5814;BME280;2933;52.302;8.134;2023-03-24T05:48:10;98747.94;;;9.87;100.00
5814;BME280;2933;52.302;8.134;2023-03-24T05:53:12;98765.97;;;9.90;100.00
5814;BME280;2933;52.302;8.134;2023-03-24T05:58:13;98774.22;;;9.95;100.00
5814;BME280;2933;52.302;8.134;2023-03-24T06:03:17;98790.25;;;9.91;100.00
5814;BME280;2933;52.302;8.134;2023-03-24T06:08:18;98795.34;;;9.92;100.00
5814;BME280;2933;52.302;8.134;2023-03-24T06:13:20;98824.28;;;9.89;100.00
5814;BME280;2933;52.302;8.134;2023-03-24T06:18:22;98833.00;;;9.78;100.00
5814;BME280;2933;52.302;8.134;2023-03-24T06:23:27;98843.41;;;9.68;100.00
5814;BME280;2933;52.302;8.134;2023-03-24T06:28:28;98849.25;;;9.61;100.00
5814;BME280;2933;52.302;8.134;2023-03-24T06:33:34;98855.03;;;9.64;100.00
5814;BME280;2933;52.302;8.134;2023-03-24T06:38:36;98875.44;;;9.59;100.00
5814;BME280;2933;52.302;8.134;2023-03-24T06:43:38;98901.88;;;9.54;100.00
5814;BME280;2933;52.302;8.134;2023-03-24T06:48:40;98904.50;;;9.54;100.00
5814;BME280;2933;52.302;8.134;2023-03-24T06:53:42;98911.25;;;9.57;100.00
5814;BME280;2933;52.302;8.134;2023-03-24T06:58:45;98917.44;;;9.45;100.00
5814;BME280;2933;52.302;8.134;2023-03-24T07:03:48;98918.31;;;9.66;100.00
5814;BME280;2933;52.302;8.134;2023-03-24T07:08:50;98935.00;;;9.75;100.00
5814;BME280;2933;52.302;8.134;2023-03-24T07:13:51;98927.34;;;9.62;100.00
5814;BME280;2933;52.302;8.134;2023-03-24T07:18:54;98943.81;;;9.63;100.00
5814;BME280;2933;52.302;8.134;2023-03-24T07:23:56;98950.09;;;9.60;100.00
5814;BME280;2933;52.302;8.134;2023-03-24T07:28:57;98953.66;;;9.59;100.00
5814;BME280;2933;52.302;8.134;2023-03-24T07:34:00;98967.38;;;9.73;100.00
5814;BME280;2933;52.302;8.134;2023-03-24T07:39:02;98978.25;;;9.78;100.00
5814;BME280;2933;52.302;8.134;2023-03-24T07:44:06;98979.91;;;9.79;100.00
5814;BME280;2933;52.302;8.134;2023-03-24T07:49:09;98984.13;;;9.59;100.00
5814;BME280;2933;52.302;8.134;2023-03-24T07:54:10;98990.44;;;9.56;100.00
5814;BME280;2933;52.302;8.134;2023-03-24T07:59:12;98995.25;;;9.61;100.00
5814;BME280;2933;52.302;8.134;2023-03-24T08:04:15;98987.78;;;9.67;100.00
5814;BME280;2933;52.302;8.134;2023-03-24T08:09:16;98985.25;;;9.77;100.00
5814;BME280;2933;52.302;8.134;2023-03-24T08:14:18;99005.53;;;9.74;100.00
5814;BME280;2933;52.302;8.134;2023-03-24T08:19:21;99023.16;;;9.81;100.00
5814;BME280;2933;52.302;8.134;2023-03-24T08:24:22;99018.47;;;9.96;100.00
5814;BME280;2933;52.302;8.134;2023-03-24T08:29:24;99024.06;;;9.92;100.00
5814;BME280;2933;52.302;8.134;2023-03-24T08:34:27;99026.94;;;9.89;100.00
5814;BME280;2933;52.302;8.134;2023-03-24T08:39:29;99036.19;;;9.81;100.00
5814;BME280;2933;52.302;8.134;2023-03-24T08:44:31;99042.22;;;9.82;100.00
5814;BME280;2933;52.302;8.134;2023-03-24T08:49:34;99047.09;;;9.86;100.00
5814;BME280;2933;52.302;8.134;2023-03-24T08:54:36;99050.00;;;9.93;100.00
5814;BME280;2933;52.302;8.134;2023-03-24T08:59:37;99074.19;;;9.95;100.00
5814;BME280;2933;52.302;8.134;2023-03-24T09:04:40;99068.19;;;10.16;100.00
5814;BME280;2933;52.302;8.134;2023-03-24T09:09:42;99078.63;;;10.16;100.00
5814;BME280;2933;52.302;8.134;2023-03-24T09:14:47;99087.41;;;10.15;100.00
5814;BME280;2933;52.302;8.134;2023-03-24T09:19:50;99088.00;;;10.18;100.00
5814;BME280;2933;52.302;8.134;2023-03-24T09:24:52;99085.56;;;10.38;100.00
5814;BME280;2933;52.302;8.134;2023-03-24T09:29:54;99102.56;;;10.54;100.00
5814;BME280;2933;52.302;8.134;2023-03-24T09:34:56;99079.94;;;10.43;100.00
5814;BME280;2933;52.302;8.134;2023-03-24T09:39:58;99089.63;;;10.52;100.00
5814;BME280;2933;52.302;8.134;2023-03-24T09:45:04;99099.16;;;10.63;100.00
5814;BME280;2933;52.302;8.134;2023-03-24T09:50:17;99103.78;;;10.71;100.00
5814;BME280;2933;52.302;8.134;2023-03-24T09:55:23;99102.03;;;10.81;100.00
5814;BME280;2933;52.302;8.134;2023-03-24T10:00:27;99099.22;;;10.73;100.00
5814;BME280;2933;52.302;8.134;2023-03-24T10:05:36;99097.69;;;10.91;99.56
5814;BME280;2933;52.302;8.134;2023-03-24T10:10:45;99091.25;;;11.26;96.50
5814;BME280;2933;52.302;8.134;2023-03-24T10:16:02;99108.00;;;11.64;94.43
5814;BME280;2933;52.302;8.134;2023-03-24T10:21:12;99099.34;;;11.93;94.53
5814;BME280;2933;52.302;8.134;2023-03-24T10:26:30;99101.56;;;11.69;93.24
5814;BME280;2933;52.302;8.134;2023-03-24T10:31:35;99108.38;;;11.50;93.40
5814;BME280;2933;52.302;8.134;2023-03-24T10:36:39;99107.94;;;11.35;92.03
5814;BME280;2933;52.302;8.134;2023-03-24T10:41:42;99115.78;;;11.45;93.20
5814;BME280;2933;52.302;8.134;2023-03-24T10:46:46;99119.13;;;11.57;95.43
5814;BME280;2933;52.302;8.134;2023-03-24T10:51:51;99116.25;;;11.70;95.02
5814;BME280;2933;52.302;8.134;2023-03-24T10:57:01;99125.06;;;11.59;92.96
5814;BME280;2933;52.302;8.134;2023-03-24T11:02:15;99123.13;;;11.61;93.52
5814;BME280;2933;52.302;8.134;2023-03-24T11:07:20;99135.56;;;11.69;94.58
5814;BME280;2933;52.302;8.134;2023-03-24T11:12:24;99139.38;;;11.64;92.78
5814;BME280;2933;52.302;8.134;2023-03-24T11:17:26;99146.03;;;11.88;92.85
5814;BME280;2933;52.302;8.134;2023-03-24T11:22:29;99142.75;;;11.86;92.92
5814;BME280;2933;52.302;8.134;2023-03-24T11:27:31;99144.84;;;11.92;90.96
5814;BME280;2933;52.302;8.134;2023-03-24T11:32:33;99157.78;;;11.94;93.30
5814;BME280;2933;52.302;8.134;2023-03-24T11:37:37;99176.09;;;11.53;100.00
5814;BME280;2933;52.302;8.134;2023-03-24T11:42:42;99176.47;;;11.08;100.00
5814;BME280;2933;52.302;8.134;2023-03-24T11:47:44;99157.91;;;10.90;100.00
5814;BME280;2933;52.302;8.134;2023-03-24T11:52:50;99155.94;;;10.82;100.00
5814;BME280;2933;52.302;8.134;2023-03-24T11:57:55;99183.91;;;10.91;100.00
5814;BME280;2933;52.302;8.134;2023-03-24T12:03:15;99164.09;;;10.89;100.00
5814;BME280;2933;52.302;8.134;2023-03-24T12:08:31;99157.56;;;11.25;100.00
5814;BME280;2933;52.302;8.134;2023-03-24T12:13:38;99149.16;;;11.72;100.00
5814;BME280;2933;52.302;8.134;2023-03-24T12:18:56;99152.72;;;12.22;100.00
5814;BME280;2933;52.302;8.134;2023-03-24T12:24:12;99148.06;;;12.45;100.00
5814;BME280;2933;52.302;8.134;2023-03-24T12:29:32;99139.00;;;12.97;100.00
5814;BME280;2933;52.302;8.134;2023-03-24T12:40:40;99144.00;;;12.90;91.70
5814;BME280;2933;52.302;8.134;2023-03-24T12:45:48;99142.63;;;12.86;91.65
5814;BME280;2933;52.302;8.134;2023-03-24T12:51:00;99156.56;;;12.86;90.55
5814;BME280;2933;52.302;8.134;2023-03-24T12:56:11;99155.47;;;12.69;91.52
5814;BME280;2933;52.302;8.134;2023-03-24T13:01:19;99161.56;;;12.40;91.99
5814;BME280;2933;52.302;8.134;2023-03-24T13:06:26;99162.41;;;12.51;90.70
5814;BME280;2933;52.302;8.134;2023-03-24T13:11:36;99177.69;;;12.16;99.36
5814;BME280;2933;52.302;8.134;2023-03-24T13:16:42;99187.22;;;11.14;95.59
5814;BME280;2933;52.302;8.134;2023-03-24T13:21:46;99163.56;;;10.95;100.00
5814;BME280;2933;52.302;8.134;2023-03-24T13:26:56;99162.78;;;11.25;100.00
5814;BME280;2933;52.302;8.134;2023-03-24T13:32:05;99174.19;;;11.55;100.00
5814;BME280;2933;52.302;8.134;2023-03-24T13:37:12;99186.94;;;11.18;100.00
5814;BME280;2933;52.302;8.134;2023-03-24T13:42:29;99172.63;;;10.70;100.00
5814;BME280;2933;52.302;8.134;2023-03-24T13:47:46;99177.69;;;10.50;100.00
5814;BME280;2933;52.302;8.134;2023-03-24T13:52:49;99167.97;;;10.52;100.00
5814;BME280;2933;52.302;8.134;2023-03-24T13:57:55;99174.19;;;10.40;100.00
5814;BME280;2933;52.302;8.134;2023-03-24T14:03:12;99201.66;;;10.11;100.00
5814;BME280;2933;52.302;8.134;2023-03-24T14:08:15;99207.63;;;9.68;100.00
5814;BME280;2933;52.302;8.134;2023-03-24T14:13:21;99191.88;;;9.35;100.00
5814;BME280;2933;52.302;8.134;2023-03-24T14:18:40;99174.31;;;9.26;100.00
5814;BME280;2933;52.302;8.134;2023-03-24T14:23:43;99154.53;;;9.24;100.00
5814;BME280;2933;52.302;8.134;2023-03-24T14:28:48;99162.94;;;9.38;100.00
5814;BME280;2933;52.302;8.134;2023-03-24T14:34:05;99176.47;;;9.44;100.00
5814;BME280;2933;52.302;8.134;2023-03-24T14:39:23;99187.00;;;9.42;100.00
5814;BME280;2933;52.302;8.134;2023-03-24T14:44:59;99201.44;;;9.24;100.00
5814;BME280;2933;52.302;8.134;2023-03-24T14:50:11;99206.47;;;8.91;100.00
5814;BME280;2933;52.302;8.134;2023-03-24T14:55:15;99211.72;;;8.67;100.00
5814;BME280;2933;52.302;8.134;2023-03-24T15:00:22;99214.91;;;8.59;100.00
5814;BME280;2933;52.302;8.134;2023-03-24T15:05:28;99225.41;;;8.57;100.00
5814;BME280;2933;52.302;8.134;2023-03-24T15:10:32;99215.34;;;8.40;100.00
5814;BME280;2933;52.302;8.134;2023-03-24T15:15:45;99206.69;;;8.52;100.00
5814;BME280;2933;52.302;8.134;2023-03-24T15:20:48;99213.78;;;8.86;100.00
5814;BME280;2933;52.302;8.134;2023-03-24T15:25:50;99189.59;;;9.08;100.00
5814;BME280;2933;52.302;8.134;2023-03-24T15:30:54;99186.16;;;9.19;100.00
5814;BME280;2933;52.302;8.134;2023-03-24T15:35:57;99173.22;;;9.06;100.00
5814;BME280;2933;52.302;8.134;2023-03-24T15:41:01;99168.00;;;9.06;100.00
5814;BME280;2933;52.302;8.134;2023-03-24T15:46:05;99181.75;;;9.08;100.00
5814;BME280;2933;52.302;8.134;2023-03-24T15:51:08;99175.28;;;9.14;100.00
5814;BME280;2933;52.302;8.134;2023-03-24T15:56:19;99174.88;;;9.07;100.00
5814;BME280;2933;52.302;8.134;2023-03-24T16:01:27;99171.69;;;9.15;100.00
5814;BME280;2933;52.302;8.134;2023-03-24T16:06:46;99178.56;;;9.04;100.00
5814;BME280;2933;52.302;8.134;2023-03-24T16:11:49;99167.19;;;8.94;100.00
5814;BME280;2933;52.302;8.134;2023-03-24T16:16:54;99171.94;;;9.00;100.00
5814;BME280;2933;52.302;8.134;2023-03-24T16:21:56;99152.28;;;9.08;100.00
5814;BME280;2933;52.302;8.134;2023-03-24T16:26:59;99152.03;;;8.99;100.00
5814;BME280;2933;52.302;8.134;2023-03-24T16:32:01;99155.09;;;8.93;100.00
5814;BME280;2933;52.302;8.134;2023-03-24T16:37:03;99159.38;;;8.94;100.00
5814;BME280;2933;52.302;8.134;2023-03-24T16:42:05;99156.66;;;8.96;100.00
5814;BME280;2933;52.302;8.134;2023-03-24T16:47:09;99157.91;;;8.90;100.00
5814;BME280;2933;52.302;8.134;2023-03-24T16:52:11;99158.16;;;8.87;100.00
5814;BME280;2933;52.302;8.134;2023-03-24T16:57:13;99163.97;;;8.91;100.00
5814;BME280;2933;52.302;8.134;2023-03-24T17:02:16;99177.97;;;9.01;100.00
5814;BME280;2933;52.302;8.134;2023-03-24T17:07:17;99172.88;;;8.99;100.00
5814;BME280;2933;52.302;8.134;2023-03-24T17:12:19;99160.66;;;8.88;100.00
5814;BME280;2933;52.302;8.134;2023-03-24T17:17:22;99156.16;;;8.91;100.00
5814;BME280;2933;52.302;8.134;2023-03-24T17:22:23;99164.09;;;8.89;100.00
5814;BME280;2933;52.302;8.134;2023-03-24T17:27:26;99160.03;;;8.85;100.00
5814;BME280;2933;52.302;8.134;2023-03-24T17:32:30;99165.97;;;8.87;100.00
5814;BME280;2933;52.302;8.134;2023-03-24T17:37:32;99159.44;;;8.81;100.00
5814;BME280;2933;52.302;8.134;2023-03-24T17:42:33;99174.47;;;8.78;100.00
5814;BME280;2933;52.302;8.134;2023-03-24T17:47:36;99171.03;;;8.77;100.00
5814;BME280;2933;52.302;8.134;2023-03-24T17:52:39;99167.63;;;8.77;100.00
5814;BME280;2933;52.302;8.134;2023-03-24T17:57:43;99169.94;;;8.68;100.00
5814;BME280;2933;52.302;8.134;2023-03-24T18:02:46;99171.38;;;8.72;100.00
5814;BME280;2933;52.302;8.134;2023-03-24T18:07:48;99169.16;;;8.79;100.00
5814;BME280;2933;52.302;8.134;2023-03-24T18:12:49;99161.94;;;8.71;100.00
5814;BME280;2933;52.302;8.134;2023-03-24T18:17:53;99164.63;;;8.70;100.00
5814;BME280;2933;52.302;8.134;2023-03-24T18:22:55;99158.13;;;8.64;100.00
5814;BME280;2933;52.302;8.134;2023-03-24T18:27:56;99162.22;;;8.55;100.00
5814;BME280;2933;52.302;8.134;2023-03-24T18:32:59;99167.19;;;8.59;100.00
5814;BME280;2933;52.302;8.134;2023-03-24T18:38:01;99164.56;;;8.47;100.00
5814;BME280;2933;52.302;8.134;2023-03-24T18:43:03;99167.38;;;8.44;100.00
5814;BME280;2933;52.302;8.134;2023-03-24T18:48:06;99166.34;;;8.34;100.00
5814;BME280;2933;52.302;8.134;2023-03-24T18:53:08;99171.31;;;8.25;100.00
5814;BME280;2933;52.302;8.134;2023-03-24T18:58:12;99165.50;;;8.46;100.00
5814;BME280;2933;52.302;8.134;2023-03-24T19:03:16;99159.66;;;8.43;100.00
5814;BME280;2933;52.302;8.134;2023-03-24T19:08:18;99162.56;;;8.51;100.00
5814;BME280;2933;52.302;8.134;2023-03-24T19:13:20;99158.19;;;8.51;100.00
5814;BME280;2933;52.302;8.134;2023-03-24T19:18:23;99155.03;;;8.59;100.00
5814;BME280;2933;52.302;8.134;2023-03-24T19:23:25;99153.69;;;8.53;100.00
5814;BME280;2933;52.302;8.134;2023-03-24T19:28:28;99143.09;;;8.44;100.00
5814;BME280;2933;52.302;8.134;2023-03-24T19:33:32;99148.31;;;8.44;100.00
5814;BME280;2933;52.302;8.134;2023-03-24T19:38:35;99136.69;;;8.36;100.00
5814;BME280;2933;52.302;8.134;2023-03-24T19:43:37;99134.31;;;8.33;100.00
5814;BME280;2933;52.302;8.134;2023-03-24T19:48:40;99145.88;;;8.29;100.00
5814;BME280;2933;52.302;8.134;2023-03-24T19:53:42;99137.56;;;8.24;100.00
5814;BME280;2933;52.302;8.134;2023-03-24T19:58:43;99141.22;;;8.21;100.00
5814;BME280;2933;52.302;8.134;2023-03-24T20:03:46;99141.13;;;8.23;100.00
5814;BME280;2933;52.302;8.134;2023-03-24T20:08:48;99123.75;;;8.23;100.00
5814;BME280;2933;52.302;8.134;2023-03-24T20:13:49;99128.59;;;8.17;100.00
5814;BME280;2933;52.302;8.134;2023-03-24T20:18:52;99124.69;;;8.22;100.00
5814;BME280;2933;52.302;8.134;2023-03-24T20:23:54;99119.81;;;8.18;100.00
5814;BME280;2933;52.302;8.134;2023-03-24T20:28:56;99105.72;;;8.09;100.00
5814;BME280;2933;52.302;8.134;2023-03-24T20:33:59;99104.88;;;8.08;100.00
5814;BME280;2933;52.302;8.134;2023-03-24T20:39:00;99095.09;;;8.12;100.00
5814;BME280;2933;52.302;8.134;2023-03-24T20:44:04;99104.56;;;8.13;100.00
5814;BME280;2933;52.302;8.134;2023-03-24T20:49:07;99105.06;;;8.18;100.00
5814;BME280;2933;52.302;8.134;2023-03-24T20:54:13;99105.53;;;8.23;100.00
5814;BME280;2933;52.302;8.134;2023-03-24T20:59:15;99097.13;;;8.20;100.00
5814;BME280;2933;52.302;8.134;2023-03-24T21:04:18;99098.34;;;8.27;100.00
5814;BME280;2933;52.302;8.134;2023-03-24T21:09:20;99099.31;;;8.37;100.00
5814;BME280;2933;52.302;8.134;2023-03-24T21:14:23;99096.88;;;8.47;100.00
5814;BME280;2933;52.302;8.134;2023-03-24T21:19:26;99101.97;;;8.49;100.00
5814;BME280;2933;52.302;8.134;2023-03-24T21:24:28;99083.38;;;8.42;100.00
5814;BME280;2933;52.302;8.134;2023-03-24T21:29:29;99078.50;;;8.37;100.00
5814;BME280;2933;52.302;8.134;2023-03-24T21:34:32;99079.63;;;8.46;100.00
5814;BME280;2933;52.302;8.134;2023-03-24T21:39:34;99080.38;;;8.35;100.00
5814;BME280;2933;52.302;8.134;2023-03-24T21:44:36;99079.69;;;8.33;100.00
5814;BME280;2933;52.302;8.134;2023-03-24T21:49:40;99074.19;;;8.25;100.00
5814;BME280;2933;52.302;8.134;2023-03-24T21:54:42;99074.94;;;8.27;100.00
5814;BME280;2933;52.302;8.134;2023-03-24T21:59:43;99073.38;;;8.24;100.00
5814;BME280;2933;52.302;8.134;2023-03-24T22:04:46;99073.97;;;8.17;100.00
5814;BME280;2933;52.302;8.134;2023-03-24T22:09:47;99064.38;;;8.17;100.00
5814;BME280;2933;52.302;8.134;2023-03-24T22:14:51;99068.75;;;8.17;100.00
5814;BME280;2933;52.302;8.134;2023-03-24T22:19:54;99057.75;;;8.13;100.00
5814;BME280;2933;52.302;8.134;2023-03-24T22:24:55;99067.63;;;8.08;100.00
5814;BME280;2933;52.302;8.134;2023-03-24T22:29:57;99070.22;;;8.08;100.00
5814;BME280;2933;52.302;8.134;2023-03-24T22:35:00;99071.06;;;8.08;100.00
5814;BME280;2933;52.302;8.134;2023-03-24T22:40:02;99069.41;;;8.07;100.00
5814;BME280;2933;52.302;8.134;2023-03-24T22:45:06;99061.84;;;8.04;100.00
5814;BME280;2933;52.302;8.134;2023-03-24T22:50:10;99061.59;;;8.07;100.00
5814;BME280;2933;52.302;8.134;2023-03-24T22:55:11;99070.47;;;8.05;100.00
5814;BME280;2933;52.302;8.134;2023-03-24T23:00:14;99067.50;;;7.98;100.00
5814;BME280;2933;52.302;8.134;2023-03-24T23:05:19;99072.34;;;8.03;100.00
5814;BME280;2933;52.302;8.134;2023-03-24T23:10:21;99059.56;;;8.00;100.00
5814;BME280;2933;52.302;8.134;2023-03-24T23:15:22;99074.91;;;7.91;100.00
5814;BME280;2933;52.302;8.134;2023-03-24T23:20:26;99077.50;;;7.91;100.00
5814;BME280;2933;52.302;8.134;2023-03-24T23:25:28;99068.03;;;7.90;100.00
5814;BME280;2933;52.302;8.134;2023-03-24T23:30:31;99067.81;;;7.93;100.00
5814;BME280;2933;52.302;8.134;2023-03-24T23:35:34;99069.31;;;7.85;100.00
5814;BME280;2933;52.302;8.134;2023-03-24T23:40:36;99055.38;;;7.86;100.00
5814;BME280;2933;52.302;8.134;2023-03-24T23:45:38;99068.38;;;7.86;100.00
5814;BME280;2933;52.302;8.134;2023-03-24T23:50:41;99071.31;;;7.81;100.00
5814;BME280;2933;52.302;8.134;2023-03-24T23:55:51;99068.41;;;7.73;100.00
